sensor_id;sensor_type;location;lat;lon;timestamp;P1;durP1;ratioP1;P2;durP2;ratioP2
62941;SDS011;49042;47.318;19.874;2024-03-07T00:02:56;18.33;;;11.38;;
62941;SDS011;49042;47.318;19.874;2024-03-07T00:05:58;14.98;;;10.32;;
62941;SDS011;49042;47.318;19.874;2024-03-07T00:09:00;16.65;;;10.48;;
62941;SDS011;49042;47.318;19.874;2024-03-07T00:12:02;17.50;;;9.50;;
62941;SDS011;49042;47.318;19.874;2024-03-07T00:15:05;17.05;;;10.80;;
62941;SDS011;49042;47.318;19.874;2024-03-07T00:18:07;16.90;;;10.38;;
62941;SDS011;49042;47.318;19.874;2024-03-07T00:21:09;19.10;;;10.63;;
62941;SDS011;49042;47.318;19.874;2024-03-07T00:24:11;18.52;;;10.65;;
62941;SDS011;49042;47.318;19.874;2024-03-07T00:27:13;18.20;;;10.23;;
62941;SDS011;49042;47.318;19.874;2024-03-07T00:30:18;20.60;;;11.35;;
62941;SDS011;49042;47.318;19.874;2024-03-07T00:33:20;20.77;;;11.25;;
62941;SDS011;49042;47.318;19.874;2024-03-07T00:36:23;23.25;;;11.48;;
62941;SDS011;49042;47.318;19.874;2024-03-07T00:39:27;16.48;;;10.90;;
62941;SDS011;49042;47.318;19.874;2024-03-07T00:42:29;18.75;;;11.10;;
62941;SDS011;49042;47.318;19.874;2024-03-07T00:45:31;21.50;;;10.95;;
62941;SDS011;49042;47.318;19.874;2024-03-07T00:48:33;16.12;;;10.35;;
62941;SDS011;49042;47.318;19.874;2024-03-07T00:51:35;16.85;;;10.40;;
62941;SDS011;49042;47.318;19.874;2024-03-07T00:54:39;15.82;;;10.30;;
62941;SDS011;49042;47.318;19.874;2024-03-07T00:57:41;18.45;;;10.70;;
62941;SDS011;49042;47.318;19.874;2024-03-07T01:00:43;17.35;;;10.35;;
62941;SDS011;49042;47.318;19.874;2024-03-07T01:03:44;16.25;;;11.05;;
62941;SDS011;49042;47.318;19.874;2024-03-07T01:06:46;16.20;;;10.63;;
62941;SDS011;49042;47.318;19.874;2024-03-07T01:09:48;21.00;;;11.90;;
62941;SDS011;49042;47.318;19.874;2024-03-07T01:12:50;18.20;;;11.23;;
62941;SDS011;49042;47.318;19.874;2024-03-07T01:15:52;21.62;;;11.30;;
62941;SDS011;49042;47.318;19.874;2024-03-07T01:18:54;20.83;;;11.82;;
62941;SDS011;49042;47.318;19.874;2024-03-07T01:21:56;25.80;;;11.85;;
62941;SDS011;49042;47.318;19.874;2024-03-07T01:24:58;23.38;;;12.18;;
62941;SDS011;49042;47.318;19.874;2024-03-07T01:28:00;19.40;;;11.80;;
62941;SDS011;49042;47.318;19.874;2024-03-07T01:31:02;20.48;;;12.10;;
62941;SDS011;49042;47.318;19.874;2024-03-07T01:34:04;20.33;;;11.43;;
62941;SDS011;49042;47.318;19.874;2024-03-07T01:37:06;22.87;;;11.70;;
62941;SDS011;49042;47.318;19.874;2024-03-07T01:40:09;18.37;;;11.68;;
62941;SDS011;49042;47.318;19.874;2024-03-07T01:43:12;20.98;;;12.50;;
62941;SDS011;49042;47.318;19.874;2024-03-07T01:46:14;22.50;;;11.20;;
62941;SDS011;49042;47.318;19.874;2024-03-07T01:49:16;21.62;;;12.50;;
62941;SDS011;49042;47.318;19.874;2024-03-07T01:52:18;21.98;;;12.50;;
62941;SDS011;49042;47.318;19.874;2024-03-07T01:55:19;21.55;;;12.13;;
62941;SDS011;49042;47.318;19.874;2024-03-07T01:58:23;19.87;;;11.80;;
62941;SDS011;49042;47.318;19.874;2024-03-07T02:01:25;19.62;;;12.37;;
62941;SDS011;49042;47.318;19.874;2024-03-07T02:04:28;21.12;;;12.15;;
62941;SDS011;49042;47.318;19.874;2024-03-07T02:07:30;20.08;;;12.73;;
62941;SDS011;49042;47.318;19.874;2024-03-07T02:10:32;18.12;;;11.40;;
62941;SDS011;49042;47.318;19.874;2024-03-07T02:13:34;16.30;;;11.05;;
62941;SDS011;49042;47.318;19.874;2024-03-07T02:16:36;15.25;;;11.05;;
62941;SDS011;49042;47.318;19.874;2024-03-07T02:19:38;16.58;;;11.20;;
62941;SDS011;49042;47.318;19.874;2024-03-07T02:22:39;16.48;;;10.88;;
62941;SDS011;49042;47.318;19.874;2024-03-07T02:25:41;16.25;;;9.98;;
62941;SDS011;49042;47.318;19.874;2024-03-07T02:28:43;17.02;;;10.57;;
62941;SDS011;49042;47.318;19.874;2024-03-07T02:31:45;15.68;;;10.85;;
62941;SDS011;49042;47.318;19.874;2024-03-07T02:34:47;15.10;;;9.68;;
62941;SDS011;49042;47.318;19.874;2024-03-07T02:37:49;14.27;;;10.02;;
62941;SDS011;49042;47.318;19.874;2024-03-07T02:40:51;13.65;;;9.60;;
62941;SDS011;49042;47.318;19.874;2024-03-07T02:43:53;11.88;;;9.38;;
62941;SDS011;49042;47.318;19.874;2024-03-07T02:46:55;14.13;;;9.93;;
62941;SDS011;49042;47.318;19.874;2024-03-07T02:49:56;13.82;;;9.95;;
62941;SDS011;49042;47.318;19.874;2024-03-07T02:52:58;20.40;;;10.15;;
62941;SDS011;49042;47.318;19.874;2024-03-07T02:56:00;13.35;;;9.27;;
62941;SDS011;49042;47.318;19.874;2024-03-07T02:59:02;14.32;;;10.00;;
62941;SDS011;49042;47.318;19.874;2024-03-07T03:02:05;12.37;;;9.38;;
62941;SDS011;49042;47.318;19.874;2024-03-07T03:05:07;13.40;;;9.48;;
62941;SDS011;49042;47.318;19.874;2024-03-07T03:08:11;12.82;;;9.40;;
62941;SDS011;49042;47.318;19.874;2024-03-07T03:11:15;15.63;;;10.23;;
62941;SDS011;49042;47.318;19.874;2024-03-07T03:14:17;12.73;;;9.50;;
62941;SDS011;49042;47.318;19.874;2024-03-07T03:17:19;12.37;;;9.05;;
62941;SDS011;49042;47.318;19.874;2024-03-07T03:20:22;12.93;;;9.52;;
62941;SDS011;49042;47.318;19.874;2024-03-07T03:23:28;13.73;;;9.13;;
62941;SDS011;49042;47.318;19.874;2024-03-07T03:26:30;12.57;;;9.07;;
62941;SDS011;49042;47.318;19.874;2024-03-07T03:29:35;14.10;;;9.73;;
62941;SDS011;49042;47.318;19.874;2024-03-07T03:32:37;12.57;;;9.73;;
62941;SDS011;49042;47.318;19.874;2024-03-07T03:35:39;12.63;;;9.30;;
62941;SDS011;49042;47.318;19.874;2024-03-07T03:38:41;10.15;;;8.43;;
62941;SDS011;49042;47.318;19.874;2024-03-07T03:41:43;12.60;;;9.27;;
62941;SDS011;49042;47.318;19.874;2024-03-07T03:44:45;14.05;;;10.68;;
62941;SDS011;49042;47.318;19.874;2024-03-07T03:47:48;15.05;;;9.90;;
62941;SDS011;49042;47.318;19.874;2024-03-07T03:50:50;13.40;;;9.70;;
62941;SDS011;49042;47.318;19.874;2024-03-07T03:53:51;13.75;;;9.18;;
62941;SDS011;49042;47.318;19.874;2024-03-07T03:56:54;12.15;;;9.63;;
62941;SDS011;49042;47.318;19.874;2024-03-07T03:59:56;11.63;;;8.93;;
62941;SDS011;49042;47.318;19.874;2024-03-07T04:02:57;12.60;;;8.70;;
62941;SDS011;49042;47.318;19.874;2024-03-07T04:05:59;16.12;;;9.77;;
62941;SDS011;49042;47.318;19.874;2024-03-07T04:09:01;9.80;;;7.82;;
62941;SDS011;49042;47.318;19.874;2024-03-07T04:12:03;10.93;;;8.50;;
62941;SDS011;49042;47.318;19.874;2024-03-07T04:15:07;10.57;;;8.10;;
62941;SDS011;49042;47.318;19.874;2024-03-07T04:18:10;12.10;;;8.18;;
62941;SDS011;49042;47.318;19.874;2024-03-07T04:21:13;10.30;;;7.87;;
62941;SDS011;49042;47.318;19.874;2024-03-07T04:24:14;10.60;;;8.35;;
62941;SDS011;49042;47.318;19.874;2024-03-07T04:27:16;11.15;;;7.93;;
62941;SDS011;49042;47.318;19.874;2024-03-07T04:30:18;10.30;;;8.23;;
62941;SDS011;49042;47.318;19.874;2024-03-07T04:33:20;10.57;;;8.18;;
62941;SDS011;49042;47.318;19.874;2024-03-07T04:36:22;10.15;;;8.20;;
62941;SDS011;49042;47.318;19.874;2024-03-07T04:39:25;11.02;;;7.18;;
62941;SDS011;49042;47.318;19.874;2024-03-07T04:42:33;9.38;;;7.65;;
62941;SDS011;49042;47.318;19.874;2024-03-07T04:45:35;9.07;;;7.35;;
62941;SDS011;49042;47.318;19.874;2024-03-07T04:48:37;7.78;;;6.90;;
62941;SDS011;49042;47.318;19.874;2024-03-07T04:51:39;8.75;;;6.65;;
62941;SDS011;49042;47.318;19.874;2024-03-07T04:54:42;9.52;;;7.12;;
62941;SDS011;49042;47.318;19.874;2024-03-07T04:57:44;8.80;;;6.95;;
62941;SDS011;49042;47.318;19.874;2024-03-07T05:00:45;8.55;;;6.68;;
62941;SDS011;49042;47.318;19.874;2024-03-07T05:03:47;7.50;;;6.25;;
62941;SDS011;49042;47.318;19.874;2024-03-07T05:06:49;9.27;;;6.78;;
62941;SDS011;49042;47.318;19.874;2024-03-07T05:09:51;9.20;;;6.78;;
62941;SDS011;49042;47.318;19.874;2024-03-07T05:12:52;7.97;;;6.05;;
62941;SDS011;49042;47.318;19.874;2024-03-07T05:15:54;8.25;;;6.40;;
62941;SDS011;49042;47.318;19.874;2024-03-07T05:18:56;8.70;;;6.72;;
62941;SDS011;49042;47.318;19.874;2024-03-07T05:22:01;12.70;;;6.82;;
62941;SDS011;49042;47.318;19.874;2024-03-07T05:25:06;9.98;;;7.10;;
62941;SDS011;49042;47.318;19.874;2024-03-07T05:28:08;10.15;;;6.68;;
62941;SDS011;49042;47.318;19.874;2024-03-07T05:31:10;8.02;;;6.50;;
62941;SDS011;49042;47.318;19.874;2024-03-07T05:34:14;8.82;;;6.28;;
62941;SDS011;49042;47.318;19.874;2024-03-07T05:37:16;7.32;;;6.03;;
62941;SDS011;49042;47.318;19.874;2024-03-07T05:40:18;7.60;;;5.75;;
62941;SDS011;49042;47.318;19.874;2024-03-07T05:43:20;8.80;;;6.68;;
62941;SDS011;49042;47.318;19.874;2024-03-07T05:46:22;8.13;;;6.35;;
62941;SDS011;49042;47.318;19.874;2024-03-07T05:49:24;6.75;;;5.47;;
62941;SDS011;49042;47.318;19.874;2024-03-07T05:52:26;7.53;;;5.72;;
62941;SDS011;49042;47.318;19.874;2024-03-07T05:55:29;6.62;;;5.50;;
62941;SDS011;49042;47.318;19.874;2024-03-07T05:58:30;6.50;;;5.07;;
62941;SDS011;49042;47.318;19.874;2024-03-07T06:01:35;6.50;;;4.93;;
62941;SDS011;49042;47.318;19.874;2024-03-07T06:04:37;6.62;;;4.97;;
62941;SDS011;49042;47.318;19.874;2024-03-07T06:07:39;5.68;;;5.05;;
62941;SDS011;49042;47.318;19.874;2024-03-07T06:10:41;5.85;;;5.05;;
62941;SDS011;49042;47.318;19.874;2024-03-07T06:13:43;7.07;;;5.70;;
62941;SDS011;49042;47.318;19.874;2024-03-07T06:16:44;6.32;;;4.87;;
62941;SDS011;49042;47.318;19.874;2024-03-07T06:19:46;7.20;;;5.05;;
62941;SDS011;49042;47.318;19.874;2024-03-07T06:22:49;6.93;;;5.57;;
62941;SDS011;49042;47.318;19.874;2024-03-07T06:25:54;9.95;;;5.07;;
62941;SDS011;49042;47.318;19.874;2024-03-07T06:28:57;5.95;;;4.85;;
62941;SDS011;49042;47.318;19.874;2024-03-07T06:31:59;4.85;;;4.35;;
62941;SDS011;49042;47.318;19.874;2024-03-07T06:35:01;7.60;;;5.20;;
62941;SDS011;49042;47.318;19.874;2024-03-07T06:38:04;8.18;;;5.05;;
62941;SDS011;49042;47.318;19.874;2024-03-07T06:41:07;5.03;;;4.47;;
62941;SDS011;49042;47.318;19.874;2024-03-07T06:44:11;6.62;;;4.57;;
62941;SDS011;49042;47.318;19.874;2024-03-07T06:47:13;7.50;;;5.57;;
62941;SDS011;49042;47.318;19.874;2024-03-07T06:50:18;7.55;;;5.05;;
62941;SDS011;49042;47.318;19.874;2024-03-07T06:53:37;6.57;;;4.75;;
62941;SDS011;49042;47.318;19.874;2024-03-07T06:56:39;6.45;;;5.28;;
62941;SDS011;49042;47.318;19.874;2024-03-07T06:59:44;9.13;;;4.37;;
62941;SDS011;49042;47.318;19.874;2024-03-07T07:02:46;6.30;;;4.35;;
62941;SDS011;49042;47.318;19.874;2024-03-07T07:05:48;5.68;;;5.00;;
62941;SDS011;49042;47.318;19.874;2024-03-07T07:08:50;6.43;;;5.15;;
62941;SDS011;49042;47.318;19.874;2024-03-07T07:11:52;8.52;;;5.22;;
62941;SDS011;49042;47.318;19.874;2024-03-07T07:14:54;6.70;;;5.03;;
62941;SDS011;49042;47.318;19.874;2024-03-07T07:17:56;6.15;;;5.55;;
62941;SDS011;49042;47.318;19.874;2024-03-07T07:20:58;6.20;;;5.20;;
62941;SDS011;49042;47.318;19.874;2024-03-07T07:24:00;7.78;;;4.93;;
62941;SDS011;49042;47.318;19.874;2024-03-07T07:27:01;6.82;;;5.25;;
62941;SDS011;49042;47.318;19.874;2024-03-07T07:30:04;6.82;;;5.40;;
62941;SDS011;49042;47.318;19.874;2024-03-07T07:33:06;7.53;;;5.50;;
62941;SDS011;49042;47.318;19.874;2024-03-07T07:36:08;11.38;;;6.32;;
62941;SDS011;49042;47.318;19.874;2024-03-07T07:39:11;11.85;;;6.45;;
62941;SDS011;49042;47.318;19.874;2024-03-07T07:42:18;10.27;;;7.43;;
62941;SDS011;49042;47.318;19.874;2024-03-07T07:45:21;9.35;;;6.60;;
62941;SDS011;49042;47.318;19.874;2024-03-07T07:48:24;13.55;;;6.30;;
62941;SDS011;49042;47.318;19.874;2024-03-07T07:51:26;16.90;;;6.93;;
62941;SDS011;49042;47.318;19.874;2024-03-07T07:54:28;9.95;;;6.50;;
62941;SDS011;49042;47.318;19.874;2024-03-07T07:57:29;8.65;;;6.30;;
62941;SDS011;49042;47.318;19.874;2024-03-07T08:00:31;12.75;;;7.22;;
62941;SDS011;49042;47.318;19.874;2024-03-07T08:03:33;8.70;;;7.00;;
62941;SDS011;49042;47.318;19.874;2024-03-07T08:06:35;9.68;;;7.30;;
62941;SDS011;49042;47.318;19.874;2024-03-07T08:09:36;10.30;;;6.55;;
62941;SDS011;49042;47.318;19.874;2024-03-07T08:12:38;8.32;;;6.93;;
62941;SDS011;49042;47.318;19.874;2024-03-07T08:15:42;11.60;;;7.22;;
62941;SDS011;49042;47.318;19.874;2024-03-07T08:18:44;12.98;;;7.05;;
62941;SDS011;49042;47.318;19.874;2024-03-07T08:21:46;10.63;;;7.65;;
62941;SDS011;49042;47.318;19.874;2024-03-07T08:24:47;11.07;;;8.13;;
62941;SDS011;49042;47.318;19.874;2024-03-07T08:27:50;9.93;;;7.85;;
62941;SDS011;49042;47.318;19.874;2024-03-07T08:30:54;11.63;;;8.18;;
62941;SDS011;49042;47.318;19.874;2024-03-07T08:33:56;10.85;;;8.25;;
62941;SDS011;49042;47.318;19.874;2024-03-07T08:36:58;10.18;;;7.97;;
62941;SDS011;49042;47.318;19.874;2024-03-07T08:40:00;12.30;;;8.13;;
62941;SDS011;49042;47.318;19.874;2024-03-07T08:43:05;11.23;;;8.55;;
62941;SDS011;49042;47.318;19.874;2024-03-07T08:46:09;14.18;;;8.65;;
62941;SDS011;49042;47.318;19.874;2024-03-07T08:49:12;12.82;;;8.65;;
62941;SDS011;49042;47.318;19.874;2024-03-07T08:52:18;11.12;;;8.13;;
62941;SDS011;49042;47.318;19.874;2024-03-07T08:55:21;8.93;;;7.10;;
62941;SDS011;49042;47.318;19.874;2024-03-07T08:58:24;21.15;;;8.27;;
62941;SDS011;49042;47.318;19.874;2024-03-07T09:01:26;12.57;;;8.43;;
62941;SDS011;49042;47.318;19.874;2024-03-07T09:04:28;22.40;;;11.27;;
62941;SDS011;49042;47.318;19.874;2024-03-07T09:07:32;15.85;;;11.55;;
62941;SDS011;49042;47.318;19.874;2024-03-07T09:10:34;11.95;;;7.95;;
62941;SDS011;49042;47.318;19.874;2024-03-07T09:13:36;20.02;;;13.55;;
62941;SDS011;49042;47.318;19.874;2024-03-07T09:16:38;14.52;;;9.68;;
62941;SDS011;49042;47.318;19.874;2024-03-07T09:19:41;20.98;;;9.15;;
62941;SDS011;49042;47.318;19.874;2024-03-07T09:22:43;17.42;;;10.13;;
62941;SDS011;49042;47.318;19.874;2024-03-07T09:25:45;19.15;;;10.23;;
62941;SDS011;49042;47.318;19.874;2024-03-07T09:28:47;13.25;;;9.82;;
62941;SDS011;49042;47.318;19.874;2024-03-07T09:31:49;15.88;;;10.23;;
62941;SDS011;49042;47.318;19.874;2024-03-07T09:34:53;18.70;;;10.02;;
62941;SDS011;49042;47.318;19.874;2024-03-07T09:37:54;13.62;;;10.13;;
62941;SDS011;49042;47.318;19.874;2024-03-07T09:40:58;17.83;;;10.50;;
62941;SDS011;49042;47.318;19.874;2024-03-07T09:44:00;13.38;;;9.80;;
62941;SDS011;49042;47.318;19.874;2024-03-07T09:47:03;14.55;;;9.70;;
62941;SDS011;49042;47.318;19.874;2024-03-07T09:50:06;15.70;;;9.95;;
62941;SDS011;49042;47.318;19.874;2024-03-07T09:53:09;13.88;;;9.60;;
62941;SDS011;49042;47.318;19.874;2024-03-07T09:56:12;12.10;;;9.00;;
62941;SDS011;49042;47.318;19.874;2024-03-07T09:59:15;13.77;;;10.00;;
62941;SDS011;49042;47.318;19.874;2024-03-07T10:02:22;17.00;;;9.52;;
62941;SDS011;49042;47.318;19.874;2024-03-07T10:05:26;22.35;;;9.90;;
62941;SDS011;49042;47.318;19.874;2024-03-07T10:08:29;17.77;;;9.20;;
62941;SDS011;49042;47.318;19.874;2024-03-07T10:11:32;15.10;;;10.23;;
62941;SDS011;49042;47.318;19.874;2024-03-07T10:14:34;15.95;;;9.38;;
62941;SDS011;49042;47.318;19.874;2024-03-07T10:17:39;15.25;;;9.77;;
62941;SDS011;49042;47.318;19.874;2024-03-07T10:20:45;22.25;;;12.20;;
62941;SDS011;49042;47.318;19.874;2024-03-07T10:23:47;22.75;;;12.65;;
62941;SDS011;49042;47.318;19.874;2024-03-07T10:26:50;13.82;;;10.05;;
62941;SDS011;49042;47.318;19.874;2024-03-07T10:29:52;13.73;;;9.63;;
62941;SDS011;49042;47.318;19.874;2024-03-07T10:32:57;19.70;;;10.30;;
62941;SDS011;49042;47.318;19.874;2024-03-07T10:36:04;16.98;;;11.40;;
62941;SDS011;49042;47.318;19.874;2024-03-07T10:39:06;15.93;;;10.80;;
62941;SDS011;49042;47.318;19.874;2024-03-07T10:42:18;18.48;;;11.70;;
62941;SDS011;49042;47.318;19.874;2024-03-07T10:45:21;17.42;;;11.12;;
62941;SDS011;49042;47.318;19.874;2024-03-07T10:48:25;20.42;;;12.20;;
62941;SDS011;49042;47.318;19.874;2024-03-07T10:51:35;18.35;;;12.52;;
62941;SDS011;49042;47.318;19.874;2024-03-07T11:05:21;24.08;;;11.90;;
62941;SDS011;49042;47.318;19.874;2024-03-07T11:08:34;16.05;;;10.77;;
62941;SDS011;49042;47.318;19.874;2024-03-07T11:11:39;17.05;;;11.25;;
62941;SDS011;49042;47.318;19.874;2024-03-07T11:14:42;13.68;;;9.05;;
62941;SDS011;49042;47.318;19.874;2024-03-07T11:17:45;18.62;;;11.12;;
62941;SDS011;49042;47.318;19.874;2024-03-07T11:20:48;17.92;;;11.43;;
62941;SDS011;49042;47.318;19.874;2024-03-07T11:23:50;18.10;;;10.98;;
62941;SDS011;49042;47.318;19.874;2024-03-07T11:26:54;16.73;;;9.73;;
62941;SDS011;49042;47.318;19.874;2024-03-07T11:29:59;20.80;;;10.93;;
62941;SDS011;49042;47.318;19.874;2024-03-07T11:33:08;16.20;;;9.95;;
62941;SDS011;49042;47.318;19.874;2024-03-07T11:36:13;17.40;;;10.00;;
62941;SDS011;49042;47.318;19.874;2024-03-07T11:39:45;16.55;;;10.05;;
62941;SDS011;49042;47.318;19.874;2024-03-07T11:42:53;19.65;;;9.82;;
62941;SDS011;49042;47.318;19.874;2024-03-07T11:45:58;16.85;;;9.23;;
62941;SDS011;49042;47.318;19.874;2024-03-07T11:49:01;17.48;;;10.48;;
62941;SDS011;49042;47.318;19.874;2024-03-07T11:52:03;23.90;;;11.15;;
62941;SDS011;49042;47.318;19.874;2024-03-07T11:55:12;31.23;;;15.57;;
62941;SDS011;49042;47.318;19.874;2024-03-07T11:58:16;18.10;;;10.25;;
62941;SDS011;49042;47.318;19.874;2024-03-07T12:01:20;18.20;;;10.98;;
62941;SDS011;49042;47.318;19.874;2024-03-07T12:04:27;17.35;;;11.02;;
62941;SDS011;49042;47.318;19.874;2024-03-07T12:07:28;20.62;;;12.25;;
62941;SDS011;49042;47.318;19.874;2024-03-07T12:10:30;22.25;;;11.55;;
62941;SDS011;49042;47.318;19.874;2024-03-07T12:13:32;23.90;;;12.43;;
62941;SDS011;49042;47.318;19.874;2024-03-07T12:16:34;21.98;;;12.07;;
62941;SDS011;49042;47.318;19.874;2024-03-07T12:19:36;22.30;;;11.18;;
62941;SDS011;49042;47.318;19.874;2024-03-07T12:22:40;19.33;;;12.60;;
62941;SDS011;49042;47.318;19.874;2024-03-07T12:25:44;16.45;;;11.63;;
62941;SDS011;49042;47.318;19.874;2024-03-07T12:28:47;16.87;;;11.60;;
62941;SDS011;49042;47.318;19.874;2024-03-07T12:31:49;17.77;;;12.13;;
62941;SDS011;49042;47.318;19.874;2024-03-07T12:34:51;18.35;;;11.25;;
62941;SDS011;49042;47.318;19.874;2024-03-07T12:37:54;18.20;;;11.10;;
62941;SDS011;49042;47.318;19.874;2024-03-07T12:44:10;17.52;;;11.57;;
62941;SDS011;49042;47.318;19.874;2024-03-07T12:47:15;16.70;;;11.23;;
62941;SDS011;49042;47.318;19.874;2024-03-07T12:50:18;17.83;;;11.55;;
62941;SDS011;49042;47.318;19.874;2024-03-07T12:53:23;21.95;;;12.35;;
62941;SDS011;49042;47.318;19.874;2024-03-07T12:56:27;19.30;;;11.80;;
62941;SDS011;49042;47.318;19.874;2024-03-07T12:59:29;18.25;;;11.75;;
62941;SDS011;49042;47.318;19.874;2024-03-07T13:02:30;21.90;;;12.50;;
62941;SDS011;49042;47.318;19.874;2024-03-07T13:05:32;24.25;;;14.30;;
62941;SDS011;49042;47.318;19.874;2024-03-07T13:08:34;19.50;;;14.20;;
62941;SDS011;49042;47.318;19.874;2024-03-07T13:11:40;23.62;;;13.18;;
62941;SDS011;49042;47.318;19.874;2024-03-07T13:14:49;19.05;;;12.23;;
62941;SDS011;49042;47.318;19.874;2024-03-07T13:17:51;19.30;;;11.05;;
62941;SDS011;49042;47.318;19.874;2024-03-07T13:20:55;20.83;;;12.88;;
62941;SDS011;49042;47.318;19.874;2024-03-07T13:23:58;19.73;;;11.90;;
62941;SDS011;49042;47.318;19.874;2024-03-07T13:27:01;22.17;;;13.88;;
62941;SDS011;49042;47.318;19.874;2024-03-07T13:30:04;22.17;;;13.10;;
62941;SDS011;49042;47.318;19.874;2024-03-07T13:33:08;22.83;;;13.73;;
62941;SDS011;49042;47.318;19.874;2024-03-07T13:36:18;21.90;;;14.75;;
62941;SDS011;49042;47.318;19.874;2024-03-07T13:39:26;25.77;;;13.18;;
62941;SDS011;49042;47.318;19.874;2024-03-07T13:42:28;21.00;;;12.90;;
62941;SDS011;49042;47.318;19.874;2024-03-07T13:45:30;23.62;;;13.60;;
62941;SDS011;49042;47.318;19.874;2024-03-07T13:48:33;19.52;;;13.27;;
62941;SDS011;49042;47.318;19.874;2024-03-07T13:51:39;23.65;;;13.38;;
62941;SDS011;49042;47.318;19.874;2024-03-07T13:54:54;24.20;;;14.73;;
62941;SDS011;49042;47.318;19.874;2024-03-07T13:57:56;23.20;;;15.63;;
62941;SDS011;49042;47.318;19.874;2024-03-07T14:07:40;28.73;;;14.70;;
62941;SDS011;49042;47.318;19.874;2024-03-07T14:32:19;19.08;;;12.70;;
62941;SDS011;49042;47.318;19.874;2024-03-07T14:38:40;19.85;;;13.35;;
62941;SDS011;49042;47.318;19.874;2024-03-07T14:44:53;22.70;;;12.88;;
62941;SDS011;49042;47.318;19.874;2024-03-07T14:47:55;20.70;;;13.10;;
62941;SDS011;49042;47.318;19.874;2024-03-07T14:50:57;22.73;;;13.70;;
62941;SDS011;49042;47.318;19.874;2024-03-07T14:53:59;19.67;;;13.18;;
62941;SDS011;49042;47.318;19.874;2024-03-07T14:57:02;22.73;;;13.80;;
62941;SDS011;49042;47.318;19.874;2024-03-07T15:03:36;19.75;;;13.48;;
62941;SDS011;49042;47.318;19.874;2024-03-07T15:06:39;20.75;;;14.38;;
62941;SDS011;49042;47.318;19.874;2024-03-07T15:09:41;21.83;;;13.88;;
62941;SDS011;49042;47.318;19.874;2024-03-07T15:12:42;19.90;;;13.68;;
62941;SDS011;49042;47.318;19.874;2024-03-07T15:15:44;21.60;;;14.10;;
62941;SDS011;49042;47.318;19.874;2024-03-07T15:18:46;21.80;;;14.30;;
62941;SDS011;49042;47.318;19.874;2024-03-07T15:21:48;25.35;;;18.37;;
62941;SDS011;49042;47.318;19.874;2024-03-07T15:24:53;19.50;;;13.45;;
62941;SDS011;49042;47.318;19.874;2024-03-07T15:27:56;21.33;;;14.43;;
62941;SDS011;49042;47.318;19.874;2024-03-07T15:30:59;23.40;;;14.18;;
62941;SDS011;49042;47.318;19.874;2024-03-07T15:34:01;20.25;;;14.43;;
62941;SDS011;49042;47.318;19.874;2024-03-07T15:37:04;17.10;;;12.60;;
62941;SDS011;49042;47.318;19.874;2024-03-07T15:40:07;20.62;;;13.13;;
62941;SDS011;49042;47.318;19.874;2024-03-07T15:43:18;23.92;;;13.07;;
62941;SDS011;49042;47.318;19.874;2024-03-07T15:46:20;31.98;;;19.27;;
62941;SDS011;49042;47.318;19.874;2024-03-07T15:49:24;26.83;;;15.70;;
62941;SDS011;49042;47.318;19.874;2024-03-07T15:52:27;25.80;;;16.65;;
62941;SDS011;49042;47.318;19.874;2024-03-07T15:55:28;19.50;;;14.02;;
62941;SDS011;49042;47.318;19.874;2024-03-07T15:58:30;29.75;;;18.23;;
62941;SDS011;49042;47.318;19.874;2024-03-07T16:01:32;22.95;;;14.25;;
62941;SDS011;49042;47.318;19.874;2024-03-07T16:04:35;24.70;;;14.65;;
62941;SDS011;49042;47.318;19.874;2024-03-07T16:07:36;24.42;;;14.77;;
62941;SDS011;49042;47.318;19.874;2024-03-07T16:10:38;26.27;;;15.85;;
62941;SDS011;49042;47.318;19.874;2024-03-07T16:13:41;20.70;;;13.73;;
62941;SDS011;49042;47.318;19.874;2024-03-07T16:16:45;24.33;;;15.45;;
62941;SDS011;49042;47.318;19.874;2024-03-07T16:19:47;23.60;;;14.13;;
62941;SDS011;49042;47.318;19.874;2024-03-07T16:22:50;25.83;;;16.12;;
62941;SDS011;49042;47.318;19.874;2024-03-07T16:25:52;27.58;;;18.98;;
62941;SDS011;49042;47.318;19.874;2024-03-07T16:28:54;26.00;;;18.17;;
62941;SDS011;49042;47.318;19.874;2024-03-07T16:31:55;23.65;;;15.10;;
62941;SDS011;49042;47.318;19.874;2024-03-07T16:34:57;23.48;;;15.25;;
62941;SDS011;49042;47.318;19.874;2024-03-07T16:38:01;29.33;;;15.45;;
62941;SDS011;49042;47.318;19.874;2024-03-07T16:41:04;19.58;;;13.40;;
62941;SDS011;49042;47.318;19.874;2024-03-07T16:44:07;33.45;;;21.73;;
62941;SDS011;49042;47.318;19.874;2024-03-07T16:47:10;35.75;;;18.62;;
62941;SDS011;49042;47.318;19.874;2024-03-07T16:50:13;33.80;;;18.02;;
62941;SDS011;49042;47.318;19.874;2024-03-07T16:53:15;28.55;;;17.37;;
62941;SDS011;49042;47.318;19.874;2024-03-07T16:56:18;41.17;;;22.42;;
62941;SDS011;49042;47.318;19.874;2024-03-07T16:59:19;100.18;;;36.65;;
62941;SDS011;49042;47.318;19.874;2024-03-07T17:02:22;41.03;;;21.50;;
62941;SDS011;49042;47.318;19.874;2024-03-07T17:05:31;89.97;;;29.17;;
62941;SDS011;49042;47.318;19.874;2024-03-07T17:08:34;26.00;;;14.85;;
62941;SDS011;49042;47.318;19.874;2024-03-07T17:11:35;41.13;;;20.25;;
62941;SDS011;49042;47.318;19.874;2024-03-07T17:14:38;23.33;;;16.02;;
62941;SDS011;49042;47.318;19.874;2024-03-07T17:17:46;25.88;;;15.75;;
62941;SDS011;49042;47.318;19.874;2024-03-07T17:20:49;30.90;;;16.33;;
62941;SDS011;49042;47.318;19.874;2024-03-07T17:23:51;31.23;;;18.45;;
62941;SDS011;49042;47.318;19.874;2024-03-07T17:26:53;27.10;;;14.93;;
62941;SDS011;49042;47.318;19.874;2024-03-07T17:29:55;24.73;;;15.30;;
62941;SDS011;49042;47.318;19.874;2024-03-07T17:32:57;25.17;;;18.05;;
62941;SDS011;49042;47.318;19.874;2024-03-07T17:36:01;26.85;;;17.25;;
62941;SDS011;49042;47.318;19.874;2024-03-07T17:39:07;31.60;;;19.42;;
62941;SDS011;49042;47.318;19.874;2024-03-07T17:42:15;59.40;;;32.83;;
62941;SDS011;49042;47.318;19.874;2024-03-07T17:45:20;31.37;;;21.50;;
62941;SDS011;49042;47.318;19.874;2024-03-07T17:48:23;28.08;;;19.02;;
62941;SDS011;49042;47.318;19.874;2024-03-07T17:51:27;44.50;;;25.17;;
62941;SDS011;49042;47.318;19.874;2024-03-07T17:54:28;41.37;;;26.80;;
62941;SDS011;49042;47.318;19.874;2024-03-07T17:57:32;33.97;;;22.00;;
62941;SDS011;49042;47.318;19.874;2024-03-07T18:00:34;26.35;;;18.60;;
62941;SDS011;49042;47.318;19.874;2024-03-07T18:03:37;25.67;;;17.90;;
62941;SDS011;49042;47.318;19.874;2024-03-07T18:06:39;31.00;;;16.58;;
62941;SDS011;49042;47.318;19.874;2024-03-07T18:09:41;28.40;;;16.92;;
62941;SDS011;49042;47.318;19.874;2024-03-07T18:12:46;32.20;;;19.20;;
62941;SDS011;49042;47.318;19.874;2024-03-07T18:15:52;43.33;;;22.85;;
62941;SDS011;49042;47.318;19.874;2024-03-07T18:18:54;33.33;;;21.58;;
62941;SDS011;49042;47.318;19.874;2024-03-07T18:21:58;41.00;;;23.77;;
62941;SDS011;49042;47.318;19.874;2024-03-07T18:25:00;32.03;;;20.15;;
62941;SDS011;49042;47.318;19.874;2024-03-07T18:28:02;32.42;;;23.12;;
62941;SDS011;49042;47.318;19.874;2024-03-07T18:31:06;76.97;;;46.08;;
62941;SDS011;49042;47.318;19.874;2024-03-07T18:34:16;57.88;;;34.38;;
62941;SDS011;49042;47.318;19.874;2024-03-07T18:37:19;41.00;;;28.20;;